Latest Weather Observations for Cape Bruny AWS

IDT60901

Issued at 3:05 am EDT Tuesday 25 November 2014 (issued every 10 minutes, with the page automatically refreshed every 10 minutes)

About weather observations | Map of Hobart area stations | Latest observations for Hobart area | Other Formats
Station Details ID: 094198 Name: CAPE BRUNY (CAPE BRUNY) Lat: -43.49 Lon: 147.14 Height: 59.7 m
Data from the previous 72 hours. | See also: Recent months at Cape Bruny AWS
Date/Time
EDT
Tmp

°C
App
Tmp
°C
Dew
Point
°C
Rel
Hum
%
Delta-T

°C
Wind Press
QNH
hPa
Press
MSL
hPa
Rain
since
9 am
mm
Dir
 
Spd
km/h
Gust
km/h
Spd
kts
Gust
kts
25/03:00am 10.8 5.3 7.5 80 1.6 WNW 26 35 14 19 999.7 999.7 9.8
25/02:30am 11.2 4.2 6.7 74 2.1 WNW 33 48 18 26 999.8 999.8 9.8
25/02:00am 11.2 3.7 6.3 72 2.3 WNW 35 52 19 28 999.9 999.9 9.8
25/01:55am 11.4 4.4 5.9 69 2.6 WNW 32 50 17 27 999.9 999.9 9.8
25/01:45am 11.7 5.3 5.3 65 3.0 NW 28 44 15 24 999.9 999.9 9.8
25/01:30am 11.2 7.6 4.9 65 2.9 NNW 13 20 7 11 1000.5 1000.5 9.8
25/01:14am 11.7 7.6 4.4 61 3.3 NW 15 20 8 11 1000.2 1000.2 9.8
25/01:00am 11.9 3.4 5.1 63 3.2 WNW 39 61 21 33 1000.2 1000.2 9.8
25/12:59am 11.9 3.4 5.1 63 3.1 WNW 39 61 21 33 1000.2 1000.2 9.8
25/12:42am 11.8 4.4 3.8 58 3.6 NW 32 50 17 27 1000.2 1000.2 9.8
25/12:30am 11.6 5.8 4.3 61 3.3 W 24 30 13 16 1000.6 1000.6 9.8
25/12:00am 11.7 4.8 4.4 61 3.3 WNW 30 50 16 27 1000.5 1000.5 9.8
 
Date/Time
EDT
Tmp

°C
App
Tmp
°C
Dew
Point
°C
Rel
Hum
%
Delta-T

°C
Wind Press
QNH
hPa
Press
MSL
hPa
Rain
since
9 am
mm
Dir
 
Spd
km/h
Gust
km/h
Spd
kts
Gust
kts
24/11:30pm 11.8 3.4 5.7 66 2.8 W 39 52 21 28 1000.5 1000.5 9.8
24/11:16pm 11.6 4.3 4.3 61 3.3 W 32 43 17 23 1000.8 1000.8 9.8
24/11:00pm 11.2 8.7 3.7 60 3.3 NNE 6 24 3 13 1001.4 1001.4 9.8
24/10:30pm 11.8 4.0 4.8 62 3.2 WNW 35 48 19 26 1001.3 1001.3 9.8
24/10:00pm 12.0 2.0 4.2 59 3.5 WNW 46 65 25 35 1001.4 1001.4 9.8
24/09:35pm 12.1 5.7 5.0 62 3.3 WNW 28 48 15 26 1001.5 1001.5 9.8
24/09:30pm 11.9 6.6 4.9 62 3.2 WNW 22 32 12 17 1001.6 1001.6 9.8
24/09:25pm 12.1 6.4 5.0 62 3.3 NW 24 30 13 16 1001.5 1001.5 9.8
24/09:00pm 12.2 2.7 6.5 68 2.7 W 46 57 25 31 1001.4 1001.4 9.8
24/08:35pm 12.4 3.7 6.2 66 2.9 WNW 41 59 22 32 1001.1 1001.1 9.8
24/08:30pm 12.3 4.8 6.1 66 2.9 WNW 35 52 19 28 1001.2 1001.2 9.8
24/08:26pm 12.5 5.2 5.4 62 3.3 WNW 33 52 18 28 1001.2 1001.2 9.8
24/08:00pm 12.6 5.5 6.2 65 3.1 WNW 33 48 18 26 1001.5 1001.5 9.8
24/07:33pm 12.1 3.8 6.2 67 2.8 WNW 39 57 21 31 1001.2 1001.2 9.8
24/07:30pm 12.2 3.7 6.9 70 2.5 W 41 57 22 31 1001.2 1001.2 9.8
24/07:03pm 12.7 3.1 7.8 72 2.4 W 48 69 26 37 1000.9 1000.9 9.8
24/07:00pm 12.7 3.9 8.0 73 2.3 W 44 54 24 29 1001.1 1001.1 9.8
24/06:39pm 12.2 5.9 9.0 81 1.6 W 32 50 17 27 1000.9 1000.9 9.6
24/06:30pm 12.1 8.4 10.2 88 1.0 W 20 33 11 18 1001.1 1001.1 9.6
24/06:00pm 12.6 10.5 11.3 92 0.7 SW 13 19 7 10 1001.5 1001.5 9.6
24/05:30pm 12.8 9.3 11.0 89 0.9 SSE 20 26 11 14 1001.3 1001.3 2.4
24/05:00pm 13.5 11.9 11.7 89 1.0 NNE 11 20 6 11 1001.7 1001.7 1.0
24/04:30pm 14.1 12.8 12.5 90 0.9 NE 11 17 6 9 1001.7 1001.7 1.0
24/04:00pm 14.0 11.7 11.9 87 1.1 NE 15 19 8 10 1002.1 1002.0 1.0
24/03:30pm 14.3 12.0 11.8 85 1.3 NNE 15 19 8 10 1002.7 1002.6 0.8
24/03:00pm 15.5 13.2 10.3 71 2.8 N 13 22 7 12 1003.3 1003.2 0.2
24/02:30pm 15.6 13.0 9.5 67 3.2 N 13 22 7 12 1003.2 1003.1 0.2
24/02:00pm 15.7 12.7 9.1 65 3.4 N 15 20 8 11 1003.5 1003.4 0.2
24/01:30pm 16.8 13.8 9.2 61 4.0 NNE 15 24 8 13 1003.9 1003.8 0.2
24/01:00pm 16.1 14.0 11.3 73 2.6 NNE 13 22 7 12 1004.1 1004.0 0.2
24/12:30pm 14.1 11.3 10.1 77 2.1 NNE 15 22 8 12 1004.7 1004.7 0.2
24/12:00pm 14.7 12.0 8.9 68 3.0 NNE 13 20 7 11 1005.1 1005.1 0.0
24/11:30am 15.3 11.3 8.3 63 3.5 NNE 19 26 10 14 1006.0 1006.0 0.0
24/11:00am 15.2 12.7 9.8 70 2.8 NE 13 19 7 10 1006.5 1006.5 0.0
24/10:30am 14.7 11.5 8.6 67 3.1 NNE 15 19 8 10 1006.9 1006.9 0.0
24/10:00am 15.0 12.1 8.0 63 3.5 NNE 13 20 7 11 1007.2 1007.2 0.0
24/09:30am 14.4 10.4 8.1 66 3.2 N 19 24 10 13 1007.2 1007.2 0.0
24/09:00am 14.3 10.2 8.0 66 3.2 N 19 24 10 13 1007.2 1007.2 0.0
24/08:30am 13.5 10.3 8.4 71 2.6 NNE 15 24 8 13 1007.2 1007.2 0.0
24/08:00am 13.1 9.0 8.0 71 2.5 N 19 24 10 13 1007.4 1007.4 0.0
24/07:30am 12.7 9.3 7.6 71 2.5 N 15 20 8 11 1007.8 1007.8 0.0
24/07:00am 12.8 8.9 8.5 75 2.2 N 19 20 10 11 1008.1 1008.1 0.0
24/06:30am 11.7 8.5 8.6 81 1.5 N 15 20 8 11 1008.4 1008.4 0.0
24/06:00am 10.9 6.8 8.0 82 1.4 N 19 24 10 13 1008.6 1008.6 0.0
24/05:30am 10.5 6.5 8.1 85 1.2 N 19 22 10 12 1008.1 1008.1 0.0
24/05:00am 11.2 7.9 9.5 89 0.9 N 17 20 9 11 1008.4 1008.4 0.0
24/04:30am 11.4 7.8 9.8 90 0.8 N 19 24 10 13 1008.5 1008.5 0.0
24/04:00am 11.6 8.5 10.2 91 0.7 N 17 24 9 13 1008.6 1008.6 0.0
24/03:30am 11.8 9.1 10.4 91 0.7 N 15 19 8 10 1008.8 1008.8 0.0
24/03:00am 12.2 9.6 10.6 90 0.8 N 15 20 8 11 1009.1 1009.1 0.0
24/02:30am 12.5 10.0 10.9 90 0.8 N 15 20 8 11 1009.5 1009.5 0.0
24/02:00am 12.5 9.9 10.6 88 1.0 N 15 19 8 10 1009.7 1009.7 0.0
24/01:30am 12.3 9.1 10.0 86 1.2 N 17 20 9 11 1010.0 1010.0 0.0
24/01:00am 12.7 10.0 10.4 86 1.2 N 15 20 8 11 1010.2 1010.2 0.0
24/12:30am 13.0 10.0 10.5 85 1.3 N 17 24 9 13 1010.3 1010.3 0.0
24/12:00am 12.8 9.7 10.3 85 1.3 N 17 20 9 11 1010.5 1010.5 0.0
 
Date/Time
EDT
Tmp

°C
App
Tmp
°C
Dew
Point
°C
Rel
Hum
%
Delta-T

°C
Wind Press
QNH
hPa
Press
MSL
hPa
Rain
since
9 am
mm
Dir
 
Spd
km/h
Gust
km/h
Spd
kts
Gust
kts
23/11:30pm 13.0 10.7 10.4 84 1.4 N 13 17 7 9 1010.9 1010.9 0.0
23/11:00pm 13.2 10.5 10.4 83 1.5 N 15 20 8 11 1011.3 1011.3 0.0
23/10:30pm 13.0 9.8 9.8 81 1.6 NNE 17 20 9 11 1011.4 1011.4 0.0
23/10:00pm 12.8 9.8 9.3 79 1.8 NNE 15 19 8 10 1011.6 1011.6 0.0
23/09:30pm 13.0 9.5 8.9 76 2.1 NNE 17 20 9 11 1011.6 1011.6 0.0
23/09:00pm 13.5 10.4 8.8 73 2.4 NNE 15 19 8 10 1011.0 1011.0 0.0
23/08:30pm 14.2 10.7 8.8 70 2.7 NNE 17 20 9 11 1011.1 1011.1 0.0
23/08:00pm 15.1 11.6 8.8 66 3.2 NE 17 20 9 11 1010.7 1010.7 0.0
23/07:30pm 15.4 11.3 8.6 64 3.5 E 20 26 11 14 1010.5 1010.5 0.0
23/07:00pm 15.6 10.0 8.8 64 3.5 E 28 35 15 19 1009.7 1009.7 0.0
23/06:58pm 15.7 10.2 9.1 65 3.4 E 28 33 15 18 1009.7 1009.7 0.0
23/06:30pm 16.5 14.1 8.5 59 4.1 E 11 15 6 8 1009.3 1009.3 0.0
23/06:00pm 16.6 14.7 9.1 61 3.9 SSW 9 15 5 8 1008.8 1008.8 0.0
23/05:30pm 17.4 14.5 9.8 61 4.0 SSW 15 20 8 11 1008.5 1008.5 0.0
23/05:00pm 17.9 14.0 9.5 58 4.4 SW 20 30 11 16 1008.1 1008.1 0.0
23/04:30pm 18.1 15.0 10.2 60 4.2 SSW 17 30 9 16 1008.0 1008.0 0.0
23/04:00pm 17.4 12.4 9.6 60 4.1 SW 26 32 14 17 1008.0 1008.0 0.0
23/03:30pm 18.5 15.0 10.1 58 4.5 SSW 19 26 10 14 1008.2 1008.2 0.0
23/03:00pm 18.6 15.6 10.7 60 4.3 SSW 17 28 9 15 1008.4 1008.4 0.0
23/02:30pm 17.0 12.8 9.9 63 3.7 SSW 22 30 12 16 1008.4 1008.4 0.0
23/02:00pm 16.6 13.4 11.1 70 3.0 S 19 26 10 14 1008.3 1008.3 0.0
23/01:30pm 16.1 12.7 9.3 64 3.5 S 17 28 9 15 1008.4 1008.4 0.0
23/01:00pm 17.2 13.5 10.1 63 3.8 SSW 20 30 11 16 1008.6 1008.6 0.0
23/12:30pm 16.8 14.4 10.0 64 3.6 S 13 19 7 10 1008.6 1008.6 0.0
23/12:00pm 17.9 15.1 10.0 60 4.2 S 15 22 8 12 1008.5 1008.5 0.0
23/11:30am 17.8 14.7 8.9 56 4.6 SSW 15 20 8 11 1008.4 1008.4 0.0
23/11:00am 19.0 13.1 7.4 47 5.9 W 28 33 15 18 1008.4 1008.4 0.0
23/10:30am 17.9 12.1 7.9 52 5.1 W 28 35 15 19 1008.1 1008.1 0.0
23/10:00am 17.2 10.6 8.4 56 4.5 W 33 39 18 21 1007.9 1007.9 0.0
23/09:30am 16.4 10.5 7.6 56 4.4 W 28 35 15 19 1007.8 1007.8 0.0
23/09:00am 16.5 9.9 8.5 59 4.1 W 33 41 18 22 1007.6 1007.6 0.8
23/08:30am 15.4 7.5 7.9 61 3.8 W 39 48 21 26 1007.0 1007.0 0.8
23/08:12am 14.6 7.9 7.4 62 3.6 W 32 50 17 27 1006.8 1006.8 0.8
23/08:00am 15.2 9.1 8.2 63 3.5 W 30 37 16 20 1006.6 1006.6 0.8
23/07:30am 14.7 8.1 8.4 66 3.2 W 33 41 18 22 1006.2 1006.2 0.8
23/07:00am 14.5 7.6 8.9 69 2.9 W 35 39 19 21 1005.8 1005.8 0.8
23/06:30am 13.8 7.8 8.6 71 2.6 WNW 30 37 16 20 1005.4 1005.4 0.8
23/06:00am 13.7 7.3 8.7 72 2.5 W 32 37 17 20 1005.0 1005.0 0.8
23/05:30am 13.1 8.6 10.1 82 1.6 W 24 30 13 16 1004.7 1004.7 0.8
23/05:00am 12.7 9.2 10.1 84 1.3 WSW 19 24 10 13 1004.3 1004.2 0.8
23/04:30am 13.2 10.0 11.3 88 1.0 SW 19 26 10 14 1004.1 1004.0 0.8
23/04:00am 13.3 10.2 11.7 90 0.9 SW 19 26 10 14 1003.8 1003.7 0.8
23/03:30am 13.4 10.4 11.8 90 0.9 SW 19 30 10 16 1003.6 1003.5 0.8
23/03:00am 13.6 12.4 11.7 88 1.0 SSE 9 13 5 7 1003.8 1003.7 0.8
23/02:30am 13.8 12.9 11.5 86 1.2 SSE 7 11 4 6 1003.7 1003.6 0.8
23/02:00am 13.5 12.6 11.4 87 1.1 W 7 11 4 6 1003.6 1003.5 0.8
23/01:30am 13.6 13.0 11.8 89 1.0 SW 6 9 3 5 1003.5 1003.4 0.8
23/01:00am 13.6 12.1 11.8 89 1.0 W 11 15 6 8 1003.6 1003.5 0.8
23/12:30am 13.8 11.9 11.8 88 1.1 W 13 17 7 9 1003.4 1003.3 0.8
23/12:00am 14.2 11.9 11.7 85 1.3 WNW 15 17 8 9 1003.4 1003.3 0.8
 
Date/Time
EDT
Tmp

°C
App
Tmp
°C
Dew
Point
°C
Rel
Hum
%
Delta-T

°C
Wind Press
QNH
hPa
Press
MSL
hPa
Rain
since
9 am
mm
Dir
 
Spd
km/h
Gust
km/h
Spd
kts
Gust
kts
22/11:30pm 14.3 13.4 11.3 82 1.6 WNW 7 11 4 6 1003.5 1003.4 0.8
22/11:00pm 14.5 13.7 11.1 80 1.8 E 6 7 3 4 1003.5 1003.4 0.8
22/10:30pm 14.1 14.5 11.3 83 1.5 CALM 0 0 0 0 1003.5 1003.4 0.8
22/10:00pm 13.9 13.0 11.2 84 1.4 ESE 7 11 4 6 1003.5 1003.4 0.8
22/09:30pm 14.1 13.4 11.3 83 1.5 E 6 9 3 5 1003.5 1003.4 0.8
22/09:00pm 14.5 14.2 11.3 81 1.7 ENE 4 9 2 5 1003.5 1003.4 0.8
22/08:30pm 14.5 14.2 11.5 82 1.6 ENE 4 7 2 4 1003.7 1003.6 0.8
22/08:00pm 14.6 13.8 11.2 80 1.8 E 6 9 3 5 1004.0 1003.9 0.8
22/07:30pm 16.3 13.8 11.0 71 2.8 NW 15 39 8 21 1003.7 1003.6 0.6
22/07:00pm 16.8 10.5 10.9 68 3.2 W 35 43 19 23 1003.3 1003.2 0.6
22/06:52pm 16.4 11.1 11.1 71 2.9 W 30 43 16 23 1003.5 1003.4 0.6
22/06:30pm 16.3 13.1 11.2 72 2.7 NW 19 22 10 12 1003.3 1003.2 0.6
22/06:00pm 17.2 12.9 10.6 65 3.5 NW 24 30 13 16 1003.0 1002.9 0.6
22/05:30pm 16.9 12.7 11.0 68 3.2 NW 24 32 13 17 1003.1 1003.0 0.6
22/05:06pm 16.5 11.0 10.6 68 3.1 WNW 30 48 16 26 1003.1 1003.0 0.4
22/05:00pm 16.3 10.0 11.0 71 2.9 WNW 35 50 19 27 1003.1 1003.0 0.4
22/04:30pm 18.7 12.0 9.8 56 4.7 NW 35 48 19 26 1003.2 1003.1 0.0
22/04:24pm 18.0 12.8 10.4 61 4.1 NW 28 48 15 26 1003.3 1003.2 0.0
22/04:00pm 17.2 15.4 12.1 72 2.8 NNW 13 20 7 11 1003.3 1003.2 0.0
22/03:30pm 19.1 17.5 10.1 56 4.8 W 9 13 5 7 1003.4 1003.3 0.0
22/03:00pm 20.9 19.4 10.7 52 5.6 W 9 15 5 8 1003.5 1003.4 0.0
22/02:30pm 21.1 18.9 10.9 52 5.6 WNW 13 17 7 9 1003.9 1003.8 0.0
22/02:00pm 18.6 13.3 9.9 57 4.7 NW 28 46 15 25 1004.2 1004.1 0.0
22/01:52pm 18.8 13.4 9.6 55 4.9 NW 28 46 15 25 1004.3 1004.2 0.0
22/01:30pm 18.1 13.6 10.2 60 4.2 NW 24 35 13 19 1004.5 1004.4 0.0
22/01:09pm 17.9 11.2 9.8 59 4.3 NW 35 54 19 29 1004.8 1004.8 0.0
22/01:00pm 18.0 10.2 9.6 58 4.4 NW 41 54 22 29 1004.7 1004.7 0.0
22/12:30pm 17.8 11.1 9.7 59 4.3 NW 35 48 19 26 1004.9 1004.9 0.0
22/12:27pm 17.7 10.9 9.3 58 4.4 NW 35 54 19 29 1004.9 1004.9 0.0
22/12:13pm 18.1 11.4 9.7 58 4.4 NW 35 48 19 26 1004.8 1004.8 0.0
22/12:00pm 17.7 13.3 9.1 57 4.5 NW 22 30 12 16 1005.1 1005.1 0.0
22/11:30am 18.1 14.0 7.8 51 5.3 N 19 26 10 14 1005.0 1005.0 0.0
22/11:00am 20.4 14.0 8.4 46 6.3 NW 32 41 17 22 1004.7 1004.7 0.0
22/10:30am 17.2 11.4 7.8 54 4.8 NW 28 39 15 21 1004.5 1004.4 0.0
22/10:00am 17.3 11.4 7.4 52 5.0 NW 28 43 15 23 1004.9 1004.9 0.0
22/09:30am 16.4 7.5 6.8 53 4.7 NW 43 54 23 29 1005.0 1005.0 0.0
22/09:00am 15.0 7.3 5.5 53 4.5 NW 35 46 19 25 1005.4 1005.4 0.4
22/08:30am 14.9 5.6 6.0 55 4.3 NW 44 57 24 31 1005.5 1005.5 0.4
22/08:00am 14.8 6.2 4.8 51 4.7 NW 39 57 21 31 1005.6 1005.6 0.4
22/07:33am 14.6 7.9 3.7 48 5.0 NW 28 46 15 25 1006.2 1006.2 0.4
22/07:30am 14.7 7.6 3.8 48 5.0 NW 30 46 16 25 1006.1 1006.1 0.4
22/07:15am 14.9 7.8 3.7 47 5.1 NW 30 50 16 27 1005.9 1005.9 0.4
22/07:00am 14.5 8.2 3.9 49 4.9 WNW 26 35 14 19 1005.8 1005.8 0.4
22/06:30am 12.6 8.2 4.8 59 3.6 N 17 24 9 13 1005.5 1005.5 0.4
22/06:00am 12.5 7.9 5.4 62 3.3 N 19 26 10 14 1005.2 1005.2 0.4
22/05:30am 10.7 7.3 5.9 72 2.2 NE 13 19 7 10 1005.1 1005.1 0.4
22/05:00am 11.3 8.1 5.2 66 2.8 N 11 20 6 11 1005.0 1005.0 0.4
22/04:30am 11.6 7.1 5.9 68 2.7 NNE 19 28 10 15 1004.9 1004.9 0.4
22/04:00am 11.1 6.8 6.8 75 2.1 N 19 24 10 13 1004.9 1004.9 0.4
22/03:30am 10.2 7.5 5.8 74 2.0 NE 9 15 5 8 1005.5 1005.5 0.4

Latest Capital City Observations: Canberra | Sydney | Melbourne | Brisbane | Adelaide | Perth | Hobart | Darwin

Other Formats:

Comma delimited format used in spreadsheet applications
http://www.bom.gov.au/fwo/IDT60901/IDT60901.95967.axf

JavaScript Object Notation format (JSON) in row-major order
http://www.bom.gov.au/fwo/IDT60901/IDT60901.95967.json